Time;durP1;ratioP1;P1;durP2;ratioP2;P2;SDS_P1;SDS_P2;PMS_P1;PMS_P2;Temp;Humidity;BMP_temperature;BMP_pressure;BME280_temperature;BME280_humidity;BME280_pressure;Samples;Min_cycle;Max_cycle;Signal;HPM_P1;HPM_P2
2024/01/03 00:01:32;;;;;;;;;;;;;;;0.50;65.29;98528.88;109453;1254;71091;-59
2024/01/03 00:03:59;;;;;;;;;;;;;;;0.42;65.88;98521.70;109386;1254;61721;-60
2024/01/03 00:06:31;;;;;;;;;;;;;;;0.33;66.31;98515.83;109430;1254;59726;-60
2024/01/03 00:08:59;;;;;;;;;;;;;;;0.44;66.56;98513.40;109411;1254;75547;-60
2024/01/03 00:11:27;;;;;;;;;;;;;;;0.64;65.91;98518.25;109502;1253;67624;-60
2024/01/03 00:13:58;;;;;;;;;;;;;;;0.56;65.66;98512.23;109457;1254;72739;-59
2024/01/03 00:16:26;;;;;;;;;;;;;;;0.52;66.28;98508.96;109388;1252;62232;-60
2024/01/03 00:18:57;;;;;;;;;;;;;;;0.34;66.52;98499.67;109541;1252;59976;-60
2024/01/03 00:21:26;;;;;;;;;;;;;;;0.24;66.89;98484.28;109515;1253;74519;-60
2024/01/03 00:24:04;;;;;;;;;;;;;;;0.34;66.54;98494.98;109176;1253;68543;-61
2024/01/03 00:26:32;;;;;;;;;;;;;;;0.48;65.57;98510.23;109393;1254;71456;-61
2024/01/03 00:28:59;;;;;;;;;;;;;;;0.58;64.53;98519.32;109343;1253;61883;-60
2024/01/03 00:31:27;;;;;;;;;;;;;;;0.58;64.15;98526.79;108691;1253;1002381;-63
2024/01/03 00:33:54;;;;;;;;;;;;;;;0.65;63.74;98526.35;109385;1252;75497;-63
2024/01/03 00:36:22;;;;;;;;;;;;;;;0.71;63.87;98528.65;109145;1253;67396;-63
2024/01/03 00:38:50;;;;;;;;;;;;;;;0.77;63.16;98534.41;109574;1252;72724;-62
2024/01/03 00:41:17;;;;;;;;;;;;;;;0.58;62.92;98524.23;109492;1253;61688;-60
2024/01/03 00:43:45;;;;;;;;;;;;;;;0.51;63.41;98515.23;109339;1253;59919;-60
2024/01/03 00:46:12;;;;;;;;;;;;;;;0.44;63.86;98504.76;109541;1254;75533;-60
2024/01/03 00:48:40;;;;;;;;;;;;;;;0.55;63.55;98503.48;109392;1253;67239;-59
2024/01/03 00:51:08;;;;;;;;;;;;;;;0.53;63.66;98496.19;109388;1253;71437;-61
2024/01/03 00:53:36;;;;;;;;;;;;;;;0.47;63.64;98490.92;109406;1254;61766;-59
2024/01/03 00:56:04;;;;;;;;;;;;;;;0.33;63.69;98486.44;109200;1253;60028;-61
2024/01/03 00:58:31;;;;;;;;;;;;;;;0.33;63.90;98483.38;109452;1253;75440;-60
2024/01/03 01:00:59;;;;;;;;;;;;;;;0.25;64.53;98479.10;108318;1253;1002592;-60
2024/01/03 01:03:26;;;;;;;;;;;;;;;0.42;64.31;98477.02;109340;1253;72722;-60
2024/01/03 01:05:54;;;;;;;;;;;;;;;0.43;63.69;98475.52;109429;1253;61774;-59
2024/01/03 01:08:22;;;;;;;;;;;;;;;0.41;63.81;98473.83;109269;1254;59674;-59
2024/01/03 01:10:49;;;;;;;;;;;;;;;0.36;63.29;98471.91;109625;1251;74263;-60
2024/01/03 01:13:17;;;;;;;;;;;;;;;0.24;64.12;98469.80;109551;1252;68502;-60
2024/01/03 01:15:45;;;;;;;;;;;;;;;0.36;63.91;98472.36;109557;1252;71217;-59
2024/01/03 01:18:12;;;;;;;;;;;;;;;0.44;63.43;98467.11;109580;1253;61799;-59
2024/01/03 01:20:40;;;;;;;;;;;;;;;0.41;63.82;98459.61;109600;1253;59890;-59
2024/01/03 01:23:08;;;;;;;;;;;;;;;0.37;63.28;98452.00;109622;1252;75559;-59
2024/01/03 01:25:35;;;;;;;;;;;;;;;0.35;63.39;98447.23;109480;1253;67393;-59
2024/01/03 01:28:03;;;;;;;;;;;;;;;0.46;63.58;98448.36;109634;1253;72715;-59
2024/01/03 01:30:30;;;;;;;;;;;;;;;0.51;63.16;98448.94;109605;1252;60824;-59
2024/01/03 01:32:57;;;;;;;;;;;;;;;0.62;62.67;98449.84;109547;1252;59697;-59
2024/01/03 01:35:25;;;;;;;;;;;;;;;0.54;62.50;98449.55;109588;1253;75485;-60
2024/01/03 01:37:53;;;;;;;;;;;;;;;0.57;62.97;98449.69;109615;1252;68841;-58
2024/01/03 01:40:20;;;;;;;;;;;;;;;0.82;62.95;98454.55;109641;1253;71768;-59
2024/01/03 01:42:48;;;;;;;;;;;;;;;0.75;62.21;98444.38;109540;1252;60623;-59
2024/01/03 01:45:15;;;;;;;;;;;;;;;0.78;62.46;98447.30;109587;1252;59919;-59
2024/01/03 01:47:42;;;;;;;;;;;;;;;0.74;62.37;98442.84;109606;1253;74585;-59
2024/01/03 01:50:10;;;;;;;;;;;;;;;0.90;62.50;98446.46;109437;1253;68822;-59
2024/01/03 01:52:38;;;;;;;;;;;;;;;0.83;62.34;98445.00;109186;1255;72530;-59
2024/01/03 01:55:06;;;;;;;;;;;;;;;0.89;61.85;98447.17;109099;1256;60494;-59
2024/01/03 01:57:34;;;;;;;;;;;;;;;0.88;61.97;98447.09;109130;1256;59818;-59
2024/01/03 02:00:02;;;;;;;;;;;;;;;0.82;62.38;98448.29;109125;1256;74308;-59
2024/01/03 02:02:38;;;;;;;;;;;;;;;0.94;62.54;98443.21;109030;1256;68958;-59
2024/01/03 02:05:06;;;;;;;;;;;;;;;0.90;62.78;98430.02;108360;1255;1002991;-59
2024/01/03 02:07:34;;;;;;;;;;;;;;;0.73;63.79;98424.77;109105;1256;61758;-59
2024/01/03 02:10:01;;;;;;;;;;;;;;;0.75;64.26;98428.38;109125;1256;59735;-59
2024/01/03 02:12:29;;;;;;;;;;;;;;;0.80;63.95;98431.77;109131;1256;75539;-59
2024/01/03 02:14:57;;;;;;;;;;;;;;;0.83;64.12;98429.55;109112;1256;68866;-59
2024/01/03 02:17:24;;;;;;;;;;;;;;;0.94;64.22;98425.49;109074;1258;72762;-60
2024/01/03 02:19:52;;;;;;;;;;;;;;;1.02;64.41;98419.20;109061;1256;61751;-59
2024/01/03 02:22:19;;;;;;;;;;;;;;;0.95;64.35;98423.46;109158;1256;59728;-59
2024/01/03 02:24:47;;;;;;;;;;;;;;;0.92;64.62;98429.63;109344;1253;75599;-60
2024/01/03 02:27:14;;;;;;;;;;;;;;;1.07;64.55;98429.59;109169;1252;68558;-59
2024/01/03 02:29:42;;;;;;;;;;;;;;;0.98;64.43;98433.63;109386;1253;71466;-59
2024/01/03 02:32:09;;;;;;;;;;;;;;;0.87;64.79;98433.90;109421;1254;59688;-58
2024/01/03 02:34:37;;;;;;;;;;;;;;;0.98;64.91;98425.88;109475;1252;59713;-58
2024/01/03 02:37:04;;;;;;;;;;;;;;;0.97;64.88;98416.11;109482;1253;75522;-59
2024/01/03 02:39:32;;;;;;;;;;;;;;;0.95;65.09;98407.92;109447;1253;67550;-59
2024/01/03 02:41:59;;;;;;;;;;;;;;;0.98;64.74;98410.88;109499;1252;72797;-59
2024/01/03 02:44:27;;;;;;;;;;;;;;;1.02;64.76;98407.73;109505;1252;61728;-60
2024/01/03 02:46:55;;;;;;;;;;;;;;;0.93;65.25;98408.05;109404;1252;59791;-59
2024/01/03 02:49:22;;;;;;;;;;;;;;;0.92;65.06;98401.37;109555;1252;75498;-59
2024/01/03 02:51:50;;;;;;;;;;;;;;;1.02;64.85;98400.38;109441;1253;67262;-59
2024/01/03 02:54:17;;;;;;;;;;;;;;;0.89;65.09;98401.04;108633;1253;1002325;-59
2024/01/03 02:56:45;;;;;;;;;;;;;;;0.81;65.44;98393.05;109503;1252;61722;-59
2024/01/03 02:59:12;;;;;;;;;;;;;;;0.82;65.57;98389.89;109609;1253;59678;-59
2024/01/03 03:01:40;;;;;;;;;;;;;;;0.77;65.96;98386.05;109360;1253;74622;-59
2024/01/03 03:04:08;;;;;;;;;;;;;;;0.78;66.01;98382.54;109553;1252;67182;-59
2024/01/03 03:06:35;;;;;;;;;;;;;;;0.84;66.22;98375.11;109455;1253;71620;-59
2024/01/03 03:09:03;;;;;;;;;;;;;;;0.94;65.92;98369.80;109430;1253;60522;-59
2024/01/03 03:11:42;;;;;;;;;;;;;;;0.95;65.60;98363.34;109425;1254;59883;-59
2024/01/03 03:14:10;;;;;;;;;;;;;;;0.94;65.60;98359.45;109422;1254;73580;-59
2024/01/03 03:16:38;;;;;;;;;;;;;;;0.90;65.96;98362.99;109444;1254;68870;-59
2024/01/03 03:19:05;;;;;;;;;;;;;;;1.04;65.70;98354.00;109431;1254;72700;-59
2024/01/03 03:21:33;;;;;;;;;;;;;;;1.02;65.76;98350.55;109221;1254;60914;-59
2024/01/03 03:24:01;;;;;;;;;;;;;;;1.02;65.59;98347.68;109441;1254;60125;-60
2024/01/03 03:26:28;;;;;;;;;;;;;;;1.11;65.56;98351.68;109394;1254;75579;-63
2024/01/03 03:28:56;;;;;;;;;;;;;;;1.00;65.33;98346.73;109422;1254;66713;-63
2024/01/03 03:31:23;;;;;;;;;;;;;;;0.87;65.82;98349.48;109390;1254;72729;-60
2024/01/03 03:33:51;;;;;;;;;;;;;;;0.82;66.17;98352.91;109324;1255;60441;-61
2024/01/03 03:36:21;;;;;;;;;;;;;;;0.97;65.76;98350.13;109185;1255;59924;-60
2024/01/03 03:38:48;;;;;;;;;;;;;;;0.93;65.97;98346.73;109411;1254;75524;-59
2024/01/03 03:41:19;;;;;;;;;;;;;;;1.02;65.90;98348.38;109362;1254;67850;-60
2024/01/03 03:43:47;;;;;;;;;;;;;;;0.93;66.08;98345.35;109152;1254;71506;-59
2024/01/03 03:46:16;;;;;;;;;;;;;;;1.11;65.48;98349.82;109332;1255;61714;-59
2024/01/03 03:48:43;;;;;;;;;;;;;;;1.21;65.30;98348.31;109332;1254;59705;-59
2024/01/03 03:51:11;;;;;;;;;;;;;;;1.28;64.70;98354.11;109365;1254;75524;-60
2024/01/03 03:53:38;;;;;;;;;;;;;;;1.33;64.51;98343.40;109173;1253;67649;-61
2024/01/03 03:56:06;;;;;;;;;;;;;;;1.23;64.80;98346.45;109447;1254;71573;-60
2024/01/03 03:58:33;;;;;;;;;;;;;;;1.26;65.09;98346.91;109409;1254;61740;-60
2024/01/03 04:01:01;;;;;;;;;;;;;;;1.31;64.85;98344.35;109161;1253;59801;-59
2024/01/03 04:03:28;;;;;;;;;;;;;;;1.27;64.83;98345.67;109450;1254;75522;-59
2024/01/03 04:05:56;;;;;;;;;;;;;;;1.10;65.97;98341.20;109297;1255;67331;-59
2024/01/03 04:08:23;;;;;;;;;;;;;;;1.15;65.92;98343.64;109248;1256;72821;-60
2024/01/03 04:10:51;;;;;;;;;;;;;;;1.16;66.12;98337.80;109263;1256;61777;-60
2024/01/03 04:13:18;;;;;;;;;;;;;;;1.29;65.66;98334.19;109165;1257;59874;-60
2024/01/03 04:15:46;;;;;;;;;;;;;;;1.30;66.04;98330.02;109180;1255;73271;-62
2024/01/03 04:18:13;;;;;;;;;;;;;;;1.21;66.37;98323.23;109307;1256;68957;-62
2024/01/03 04:20:41;;;;;;;;;;;;;;;1.22;66.76;98318.08;109183;1256;72978;-59
2024/01/03 04:23:08;;;;;;;;;;;;;;;1.18;66.65;98312.04;109092;1256;61768;-59
2024/01/03 04:25:36;;;;;;;;;;;;;;;1.11;67.19;98321.48;109205;1255;59642;-59
2024/01/03 04:28:03;;;;;;;;;;;;;;;1.19;67.00;98319.38;109205;1255;75520;-60
2024/01/03 04:30:31;;;;;;;;;;;;;;;1.26;66.78;98312.34;109180;1255;68487;-59
2024/01/03 04:32:58;;;;;;;;;;;;;;;1.18;67.12;98314.06;109271;1255;71484;-59
2024/01/03 04:35:26;;;;;;;;;;;;;;;1.26;66.99;98309.54;109168;1256;60473;-61
2024/01/03 04:37:54;;;;;;;;;;;;;;;1.27;66.93;98310.05;109329;1254;59873;-62
2024/01/03 04:40:21;;;;;;;;;;;;;;;1.20;67.50;98304.30;109438;1253;74352;-61
2024/01/03 04:42:48;;;;;;;;;;;;;;;1.26;67.50;98300.96;109446;1254;68810;-60
2024/01/03 04:45:16;;;;;;;;;;;;;;;1.22;67.58;98299.02;109460;1253;71623;-60
2024/01/03 04:47:43;;;;;;;;;;;;;;;1.18;68.27;98295.53;109425;1254;59715;-62
2024/01/03 04:50:11;;;;;;;;;;;;;;;1.21;67.99;98294.35;109099;1253;59910;-58
2024/01/03 04:52:38;;;;;;;;;;;;;;;1.04;68.54;98294.52;109554;1252;74930;-58
2024/01/03 04:55:06;;;;;;;;;;;;;;;1.06;68.79;98282.79;109272;1253;67587;-59
2024/01/03 04:57:34;;;;;;;;;;;;;;;1.09;68.90;98284.77;109185;1253;72758;-59
2024/01/03 05:00:04;;;;;;;;;;;;;;;1.19;68.84;98285.44;109298;1255;61813;-60
2024/01/03 05:02:32;;;;;;;;;;;;;;;1.05;69.51;98283.34;109155;1253;59798;-59
2024/01/03 05:04:59;;;;;;;;;;;;;;;1.28;68.67;98285.18;109527;1252;75497;-59
2024/01/03 05:07:27;;;;;;;;;;;;;;;1.18;69.02;98280.41;109541;1252;68798;-59
2024/01/03 05:09:54;;;;;;;;;;;;;;;1.11;70.14;98279.36;109133;1257;74777;-61
2024/01/03 05:12:22;;;;;;;;;;;;;;;1.20;70.37;98280.83;109361;1253;60442;-62
2024/01/03 05:14:49;;;;;;;;;;;;;;;1.23;70.32;98277.41;109411;1253;59712;-59
2024/01/03 05:17:17;;;;;;;;;;;;;;;1.33;70.00;98280.15;109541;1252;75517;-59
2024/01/03 05:19:44;;;;;;;;;;;;;;;1.26;70.07;98273.70;109566;1253;68815;-59
2024/01/03 05:22:12;;;;;;;;;;;;;;;1.30;70.50;98275.48;109574;1252;73185;-61
2024/01/03 05:24:39;;;;;;;;;;;;;;;1.36;70.07;98275.96;109294;1254;145864;-60
2024/01/03 05:27:07;;;;;;;;;;;;;;;1.28;70.65;98273.27;109477;1252;59914;-60
2024/01/03 05:29:34;;;;;;;;;;;;;;;1.30;70.80;98266.82;109451;1253;75521;-59
2024/01/03 05:32:02;;;;;;;;;;;;;;;1.29;71.36;98271.11;109508;1252;68668;-59
2024/01/03 05:34:29;;;;;;;;;;;;;;;1.29;71.81;98274.98;109507;1252;72757;-60
2024/01/03 05:36:56;;;;;;;;;;;;;;;1.26;71.69;98271.42;109573;1253;60974;-60
2024/01/03 05:39:24;;;;;;;;;;;;;;;1.27;71.67;98268.73;109543;1252;59668;-61
2024/01/03 05:41:51;;;;;;;;;;;;;;;1.31;71.77;98267.90;109556;1253;75505;-60
2024/01/03 05:44:19;;;;;;;;;;;;;;;1.27;71.90;98270.08;109514;1252;69644;-60
2024/01/03 05:46:47;;;;;;;;;;;;;;;1.37;72.48;98270.05;109504;1252;72711;-60
2024/01/03 05:49:14;;;;;;;;;;;;;;;1.28;72.35;98271.52;109370;1253;60537;-61
2024/01/03 05:51:42;;;;;;;;;;;;;;;1.23;73.05;98267.94;109524;1252;60701;-60
2024/01/03 05:54:09;;;;;;;;;;;;;;;1.29;73.05;98267.88;109473;1253;75506;-61
2024/01/03 05:56:37;;;;;;;;;;;;;;;1.27;73.23;98265.11;109544;1252;67270;-59
2024/01/03 05:59:05;;;;;;;;;;;;;;;1.38;73.16;98263.04;109193;1252;1002256;-59
2024/01/03 06:01:33;;;;;;;;;;;;;;;1.38;73.82;98259.30;109530;1252;61716;-59
2024/01/03 06:04:00;;;;;;;;;;;;;;;1.42;73.70;98253.38;109594;1252;59849;-60
2024/01/03 06:06:28;;;;;;;;;;;;;;;1.60;73.07;98250.44;109543;1252;75532;-60
2024/01/03 06:08:55;;;;;;;;;;;;;;;1.66;72.72;98241.69;108585;1254;1002231;-60
2024/01/03 06:11:23;;;;;;;;;;;;;;;1.36;74.11;98240.21;109071;1256;71595;-59
2024/01/03 06:13:51;;;;;;;;;;;;;;;1.34;74.46;98236.83;109168;1256;61822;-60
2024/01/03 06:16:18;;;;;;;;;;;;;;;1.66;73.78;98240.69;109174;1256;59896;-59
2024/01/03 06:18:46;;;;;;;;;;;;;;;1.70;73.37;98241.69;109181;1256;75531;-63
2024/01/03 06:21:14;;;;;;;;;;;;;;;1.56;73.97;98236.70;109183;1256;68577;-60
2024/01/03 06:23:41;;;;;;;;;;;;;;;1.67;73.70;98232.13;109169;1256;72706;-64
2024/01/03 06:26:09;;;;;;;;;;;;;;;1.56;73.87;98230.60;109122;1256;59764;-60
2024/01/03 06:28:36;;;;;;;;;;;;;;;1.41;74.95;98228.66;109180;1256;59947;-61
2024/01/03 06:31:04;;;;;;;;;;;;;;;1.49;75.06;98225.28;109167;1256;75488;-62
2024/01/03 06:33:32;;;;;;;;;;;;;;;1.69;74.35;98220.05;109189;1256;66307;-60
2024/01/03 06:36:00;;;;;;;;;;;;;;;1.76;74.55;98212.61;109143;1256;72740;-61
2024/01/03 06:38:27;;;;;;;;;;;;;;;1.70;74.36;98205.95;109315;1254;61778;-61
2024/01/03 06:40:55;;;;;;;;;;;;;;;1.78;74.17;98208.47;109271;1254;59953;-61
2024/01/03 06:43:22;;;;;;;;;;;;;;;1.82;74.46;98202.90;108619;1253;1002253;-61
2024/01/03 06:45:49;;;;;;;;;;;;;;;1.80;74.40;98196.78;109382;1252;68573;-62
2024/01/03 06:48:17;;;;;;;;;;;;;;;1.74;74.65;98197.23;109355;1252;72616;-62
2024/01/03 06:50:46;;;;;;;;;;;;;;;1.80;74.71;98194.27;109384;1252;60445;-61
2024/01/03 06:53:13;;;;;;;;;;;;;;;1.81;75.00;98193.57;108348;1251;1002313;-62
2024/01/03 06:55:41;;;;;;;;;;;;;;;1.60;75.44;98189.96;109405;1252;75498;-62
2024/01/03 06:58:08;;;;;;;;;;;;;;;1.58;75.67;98185.52;109389;1252;67585;-62
2024/01/03 07:00:36;;;;;;;;;;;;;;;1.68;75.82;98182.31;109423;1252;71087;-61
2024/01/03 07:03:04;;;;;;;;;;;;;;;1.68;75.79;98177.83;109397;1252;61752;-62
2024/01/03 07:05:32;;;;;;;;;;;;;;;1.62;75.76;98173.09;109497;1253;59718;-62
2024/01/03 07:08:00;;;;;;;;;;;;;;;1.65;75.88;98171.40;109580;1252;75480;-62
2024/01/03 07:10:31;;;;;;;;;;;;;;;1.74;75.36;98168.15;109548;1252;68886;-62
2024/01/03 07:12:59;;;;;;;;;;;;;;;1.70;75.64;98163.01;109592;1251;72427;-61
2024/01/03 07:15:26;;;;;;;;;;;;;;;1.89;75.07;98158.25;109528;1254;60484;-61
2024/01/03 07:17:55;;;;;;;;;;;;;;;1.80;75.20;98155.56;109370;1251;59747;-61
2024/01/03 07:20:23;;;;;;;;;;;;;;;1.77;75.63;98155.70;109541;1252;75510;-65
2024/01/03 07:22:50;;;;;;;;;;;;;;;1.76;75.14;98148.59;109575;1252;68617;-62
2024/01/03 07:25:18;;;;;;;;;;;;;;;1.96;74.90;98150.34;109310;1255;72486;-61
2024/01/03 07:27:46;;;;;;;;;;;;;;;2.00;74.29;98152.80;109197;1255;60473;-60
2024/01/03 07:30:14;;;;;;;;;;;;;;;1.98;74.24;98146.85;109179;1255;59886;-63
2024/01/03 07:32:42;;;;;;;;;;;;;;;1.99;74.41;98142.21;109225;1255;74519;-63
2024/01/03 07:35:09;;;;;;;;;;;;;;;2.00;74.58;98139.69;109217;1255;68622;-60
2024/01/03 07:37:37;;;;;;;;;;;;;;;1.89;75.00;98130.72;109257;1255;72716;-61
2024/01/03 07:40:04;;;;;;;;;;;;;;;1.81;75.90;98132.52;109256;1255;61732;-62
2024/01/03 07:42:32;;;;;;;;;;;;;;;1.71;76.38;98127.06;109281;1255;60769;-62
2024/01/03 07:44:59;;;;;;;;;;;;;;;1.75;75.85;98127.15;109338;1256;75560;-62
2024/01/03 07:47:27;;;;;;;;;;;;;;;1.76;76.18;98118.30;108997;1258;67088;-62
2024/01/03 07:49:55;;;;;;;;;;;;;;;1.88;75.62;98117.64;109037;1259;72446;-64
2024/01/03 07:52:22;;;;;;;;;;;;;;;1.96;74.89;98115.62;109053;1258;60492;-63
2024/01/03 07:54:54;;;;;;;;;;;;;;;2.03;73.75;98112.91;109033;1258;59693;-64
2024/01/03 07:57:21;;;;;;;;;;;;;;;1.92;74.39;98108.77;109227;1256;75520;-63
2024/01/03 07:59:49;;;;;;;;;;;;;;;1.96;74.04;98106.45;109195;1257;68544;-64
2024/01/03 08:02:16;;;;;;;;;;;;;;;2.05;74.24;98108.80;109202;1255;71777;-64
2024/01/03 08:04:44;;;;;;;;;;;;;;;1.88;74.76;98100.80;109244;1257;61790;-64
2024/01/03 08:07:11;;;;;;;;;;;;;;;1.80;74.88;98096.98;109219;1256;59929;-62
2024/01/03 08:09:38;;;;;;;;;;;;;;;1.86;74.94;98092.97;109037;1257;75501;-64
2024/01/03 08:12:06;;;;;;;;;;;;;;;1.78;75.04;98092.39;108944;1256;67273;-63
2024/01/03 08:14:34;;;;;;;;;;;;;;;1.81;75.01;98087.05;109090;1257;71434;-65
2024/01/03 08:17:02;;;;;;;;;;;;;;;1.77;74.84;98080.61;109111;1257;60447;-64
2024/01/03 08:19:29;;;;;;;;;;;;;;;1.80;74.47;98081.27;109438;1252;59754;-64
2024/01/03 08:21:57;;;;;;;;;;;;;;;1.90;73.78;98072.46;109499;1253;74353;-65
2024/01/03 08:24:26;;;;;;;;;;;;;;;1.80;73.92;98059.63;109490;1253;68481;-60
2024/01/03 08:26:53;;;;;;;;;;;;;;;2.00;73.56;98062.98;109290;1253;70882;-61
2024/01/03 08:29:21;;;;;;;;;;;;;;;1.96;73.49;98066.69;109496;1253;60496;-62
2024/01/03 08:31:49;;;;;;;;;;;;;;;1.81;74.07;98050.60;109511;1253;59750;-63
2024/01/03 08:34:16;;;;;;;;;;;;;;;1.84;74.72;98047.02;109519;1253;74228;-63
2024/01/03 08:36:44;;;;;;;;;;;;;;;1.76;74.63;98053.67;109499;1252;68512;-64
2024/01/03 08:39:11;;;;;;;;;;;;;;;1.89;73.46;98052.49;109488;1253;72662;-64
2024/01/03 08:41:39;;;;;;;;;;;;;;;1.98;73.92;98047.70;109465;1253;61827;-62
2024/01/03 08:44:06;;;;;;;;;;;;;;;2.06;73.17;98044.95;109469;1253;59714;-64
2024/01/03 08:46:40;;;;;;;;;;;;;;;1.83;74.16;98035.50;109345;1252;77542;-61
2024/01/03 08:49:08;;;;;;;;;;;;;;;1.86;74.38;98034.19;109554;1252;68611;-60
2024/01/03 08:51:36;;;;;;;;;;;;;;;1.99;73.31;98033.12;109536;1252;72680;-62
2024/01/03 08:54:04;;;;;;;;;;;;;;;1.94;73.54;98018.30;109535;1253;60452;-61
2024/01/03 08:56:31;;;;;;;;;;;;;;;1.98;73.65;98026.59;109666;1252;60293;-65
2024/01/03 08:58:59;;;;;;;;;;;;;;;2.09;73.80;98021.34;109336;1255;75419;-63
2024/01/03 09:01:27;;;;;;;;;;;;;;;2.10;72.99;98015.02;109242;1255;69027;-61
2024/01/03 09:03:55;;;;;;;;;;;;;;;2.42;72.52;98020.52;109058;1256;71624;-60
2024/01/03 09:06:23;;;;;;;;;;;;;;;2.50;71.26;98010.86;109260;1256;60463;-63
2024/01/03 09:08:51;;;;;;;;;;;;;;;2.32;72.39;98005.20;109258;1255;60856;-60
2024/01/03 09:11:22;;;;;;;;;;;;;;;2.41;71.81;97995.92;109232;1255;75490;-63
2024/01/03 09:13:49;;;;;;;;;;;;;;;2.40;71.67;97988.23;109168;1255;67736;-62
2024/01/03 09:16:20;;;;;;;;;;;;;;;2.40;72.09;97976.95;109134;1254;71431;-64
2024/01/03 09:18:48;;;;;;;;;;;;;;;2.26;71.97;97968.92;109252;1256;60788;-66
2024/01/03 09:21:16;;;;;;;;;;;;;;;2.43;71.89;97964.65;109292;1255;59737;-65
2024/01/03 09:23:43;;;;;;;;;;;;;;;2.54;70.90;97952.34;109288;1256;74303;-65
2024/01/03 09:26:11;;;;;;;;;;;;;;;2.37;71.49;97950.73;109297;1255;67235;-62
2024/01/03 09:28:39;;;;;;;;;;;;;;;2.53;71.27;97943.41;109251;1254;71517;-61
2024/01/03 09:31:07;;;;;;;;;;;;;;;2.50;71.69;97937.66;109243;1256;61723;-62
2024/01/03 09:33:34;;;;;;;;;;;;;;;2.56;71.80;97932.40;109105;1254;59758;-62
2024/01/03 09:36:02;;;;;;;;;;;;;;;2.56;71.33;97921.73;109182;1253;75635;-66
2024/01/03 09:38:30;;;;;;;;;;;;;;;2.52;71.42;97923.10;109207;1254;68859;-65
2024/01/03 09:40:58;;;;;;;;;;;;;;;2.37;71.62;97925.15;109099;1254;72762;-64
2024/01/03 09:43:25;;;;;;;;;;;;;;;2.50;71.89;97941.55;109295;1254;60495;-64
2024/01/03 09:45:53;;;;;;;;;;;;;;;2.71;71.05;97937.08;109482;1255;59750;-63
2024/01/03 09:48:21;;;;;;;;;;;;;;;2.81;70.81;97946.92;109383;1253;74284;-62
2024/01/03 09:50:49;;;;;;;;;;;;;;;2.93;70.35;97952.04;109132;1252;68816;-61
2024/01/03 09:53:16;;;;;;;;;;;;;;;3.02;70.06;97950.61;109122;1253;72656;-62
2024/01/03 09:55:44;;;;;;;;;;;;;;;3.13;69.94;97947.69;109257;1252;61829;-59
2024/01/03 09:58:12;;;;;;;;;;;;;;;3.28;69.55;97947.45;109546;1253;59963;-62
2024/01/03 10:00:39;;;;;;;;;;;;;;;3.30;69.02;97943.02;109588;1252;75626;-61
2024/01/03 10:03:07;;;;;;;;;;;;;;;3.30;69.00;97935.98;109095;1253;68559;-62
2024/01/03 10:05:35;;;;;;;;;;;;;;;2.98;69.90;97927.55;109511;1253;72912;-60
2024/01/03 10:08:19;;;;;;;;;;;;;;;3.02;70.78;97918.68;109494;1253;61822;-66
2024/01/03 10:10:47;;;;;;;;;;;;;;;3.13;70.07;97915.86;109563;1252;59866;-59
2024/01/03 10:13:18;;;;;;;;;;;;;;;3.19;69.84;97911.34;109335;1253;75524;-60
2024/01/03 10:15:46;;;;;;;;;;;;;;;3.28;69.27;97903.80;109547;1252;67585;-62
2024/01/03 10:18:17;;;;;;;;;;;;;;;3.17;69.72;97899.80;109533;1252;72707;-60
2024/01/03 10:20:48;;;;;;;;;;;;;;;3.23;69.90;97889.85;109555;1253;60486;-62
2024/01/03 10:23:18;;;;;;;;;;;;;;;3.35;69.48;97885.48;109551;1253;59845;-62
2024/01/03 10:25:45;;;;;;;;;;;;;;;3.14;69.80;97875.05;109571;1252;75569;-61
2024/01/03 10:28:15;;;;;;;;;;;;;;;3.12;70.17;97866.77;109573;1252;68511;-61
2024/01/03 10:30:43;;;;;;;;;;;;;;;2.85;71.20;97850.67;109574;1253;71823;-62
2024/01/03 10:33:10;;;;;;;;;;;;;;;3.04;71.28;97849.27;109561;1253;62108;-63
2024/01/03 10:35:41;;;;;;;;;;;;;;;2.99;71.15;97839.23;109534;1252;59902;-63
2024/01/03 10:38:08;;;;;;;;;;;;;;;3.06;70.84;97834.57;109227;1253;74257;-60
2024/01/03 10:40:39;;;;;;;;;;;;;;;3.01;71.17;97830.10;109337;1253;67766;-62
2024/01/03 10:43:10;;;;;;;;;;;;;;;3.10;71.21;97820.51;109239;1253;71482;-60
2024/01/03 10:45:37;;;;;;;;;;;;;;;2.81;72.23;97811.40;109544;1253;60458;-60
2024/01/03 10:48:05;;;;;;;;;;;;;;;2.83;72.55;97806.39;109574;1253;59898;-60
2024/01/03 10:50:34;;;;;;;;;;;;;;;3.00;71.65;97804.80;109580;1253;75533;-60
2024/01/03 10:53:03;;;;;;;;;;;;;;;2.85;71.93;97790.42;109574;1253;67650;-60
2024/01/03 10:55:35;;;;;;;;;;;;;;;2.82;72.64;97793.08;109532;1252;72736;-64
2024/01/03 10:58:12;;;;;;;;;;;;;;;2.93;71.81;97793.11;109520;1253;60460;-61
2024/01/03 11:00:43;;;;;;;;;;;;;;;2.90;71.81;97789.62;109513;1253;59733;-60
2024/01/03 11:03:20;;;;;;;;;;;;;;;2.77;72.73;97778.46;109314;1253;74248;-59
2024/01/03 11:05:54;;;;;;;;;;;;;;;2.93;72.30;97776.94;109490;1253;67709;-62
2024/01/03 11:08:21;;;;;;;;;;;;;;;2.78;72.93;97771.05;109520;1253;72693;-61
2024/01/03 11:10:51;;;;;;;;;;;;;;;2.84;73.14;97768.64;109364;1253;60720;-60
2024/01/03 11:13:25;;;;;;;;;;;;;;;2.98;72.72;97759.45;109174;1253;59677;-62
2024/01/03 11:15:53;;;;;;;;;;;;;;;2.86;73.03;97751.96;109546;1253;75509;-60
2024/01/03 11:18:39;;;;;;;;;;;;;;;2.88;73.69;97746.73;109127;1253;68953;-60
2024/01/03 11:21:35;;;;;;;;;;;;;;;2.93;73.79;97742.33;109531;1253;72751;-62
2024/01/03 11:24:20;;;;;;;;;;;;;;;3.01;74.10;97732.71;109050;1260;60460;-61
2024/01/03 11:26:57;;;;;;;;;;;;;;;3.12;74.32;97739.25;109082;1257;59946;-59
2024/01/03 11:29:44;;;;;;;;;;;;;;;2.93;75.03;97729.30;109073;1258;75730;-59
2024/01/03 11:32:12;;;;;;;;;;;;;;;2.89;76.09;97728.41;109039;1257;69072;-60
2024/01/03 11:34:49;;;;;;;;;;;;;;;3.10;75.23;97722.05;108955;1259;71478;-61
2024/01/03 11:37:16;;;;;;;;;;;;;;;2.87;76.82;97707.23;109058;1257;59857;-62
2024/01/03 11:39:47;;;;;;;;;;;;;;;3.00;76.82;97708.95;109053;1258;59910;-61
2024/01/03 11:42:18;;;;;;;;;;;;;;;3.15;76.40;97703.64;109060;1257;75509;-62
2024/01/03 11:44:46;;;;;;;;;;;;;;;2.97;77.17;97690.85;109029;1257;68535;-63
2024/01/03 11:47:13;;;;;;;;;;;;;;;2.98;77.57;97688.75;109052;1257;71460;-60
2024/01/03 11:49:41;;;;;;;;;;;;;;;3.11;77.31;97687.70;109108;1260;60286;-60
2024/01/03 11:52:08;;;;;;;;;;;;;;;3.18;77.04;97685.92;108975;1256;59732;-62
2024/01/03 11:54:36;;;;;;;;;;;;;;;3.18;77.04;97683.19;109035;1259;75523;-60
2024/01/03 11:57:09;;;;;;;;;;;;;;;3.00;77.89;97668.13;108957;1260;68853;-60
2024/01/03 11:59:36;;;;;;;;;;;;;;;3.10;77.46;97667.59;108931;1260;71470;-60
2024/01/03 12:02:05;;;;;;;;;;;;;;;3.22;77.20;97666.80;109193;1254;60471;-60
2024/01/03 12:04:32;;;;;;;;;;;;;;;3.20;77.16;97662.70;109246;1255;59736;-59
2024/01/03 12:07:00;;;;;;;;;;;;;;;3.13;78.07;97664.44;109206;1254;74229;-61
2024/01/03 12:09:31;;;;;;;;;;;;;;;2.96;79.11;97649.08;109293;1256;68785;-60
2024/01/03 12:11:59;;;;;;;;;;;;;;;2.96;80.09;97652.03;109230;1255;72727;-60
2024/01/03 12:14:29;;;;;;;;;;;;;;;2.87;80.30;97643.80;109231;1257;61762;-60
2024/01/03 12:16:58;;;;;;;;;;;;;;;2.86;80.57;97639.45;109246;1256;59944;-60
2024/01/03 12:19:26;;;;;;;;;;;;;;;3.02;80.07;97632.06;109210;1255;75083;-59
2024/01/03 12:21:54;;;;;;;;;;;;;;;3.11;79.55;97630.23;109245;1256;68848;-60
2024/01/03 12:24:22;;;;;;;;;;;;;;;3.12;79.70;97627.33;109142;1256;71467;-63
2024/01/03 12:26:49;;;;;;;;;;;;;;;3.20;79.45;97625.73;109218;1251;61921;-62
2024/01/03 12:29:18;;;;;;;;;;;;;;;3.21;79.86;97620.09;109495;1253;59905;-60
2024/01/03 12:31:46;;;;;;;;;;;;;;;3.47;79.82;97619.02;109511;1253;74230;-61
2024/01/03 12:34:20;;;;;;;;;;;;;;;3.14;80.15;97613.34;109452;1254;67668;-60
2024/01/03 12:36:48;;;;;;;;;;;;;;;3.12;80.62;97614.45;109481;1251;71465;-61
2024/01/03 12:39:15;;;;;;;;;;;;;;;3.22;80.46;97610.39;109311;1253;60091;-60
2024/01/03 12:41:42;;;;;;;;;;;;;;;3.11;80.64;97602.70;109635;1254;59964;-59
2024/01/03 12:44:10;;;;;;;;;;;;;;;3.09;81.49;97600.25;109590;1256;77400;-60
2024/01/03 12:46:37;;;;;;;;;;;;;;;3.19;80.73;97593.50;109570;1251;67530;-61
2024/01/03 12:49:05;;;;;;;;;;;;;;;3.06;80.96;97582.95;109281;1257;72697;-60
2024/01/03 12:51:33;;;;;;;;;;;;;;;3.11;81.34;97590.09;109579;1253;60490;-61